x

Port Washington, Wi (pwaw3) Weather Station

11:40am - Wed 17th Sep 2014 All times are CDT. -5 hours from GMT.

  • Wind
    1mph, 13mph gusts
  • Air Temp 68°f
  • Sea Pressure 1016.3mb
  • Port Washington, Wi
  • Port Washington, Wi

More Historic Weather Station data

Upgrade to MSW Pro to gain access to the past 30 days of data for over 8000 Wavebouys and Weather Stations around the globe.

Join Pro

Comparision Forecast

View Surf forecast
   
Wed 09/17 11:40am 1 13 mph 1016.3mb 68f
11:30am 8 14 mph 1016.3mb 68f
11:20am 10 13 mph 1016.3mb 68f
11:10am 3 9 mph 1016.3mb 67f
11:00am 3 11 mph 1016.6mb 65f
10:40am 7 11 mph 1016.6mb 65f
10:30am 5 11 mph 1016.9mb 64f
10:20am 8 14 mph 1016.9mb 64f
10:10am 7 11 mph 1016.9mb 64f
10:00am 6 13 mph 1016.9mb 63f
9:40am 9 14 mph 1016.9mb 62f
9:30am 5 10 mph 1016.9mb 62f
9:20am 9 13 mph 1016.9mb 61f
9:10am 8 11 mph 1017.3mb 61f
9:00am 7 10 mph 1017.3mb 60f
8:40am 6 10 mph 1017.3mb 60f
8:30am 5 7 mph 1017.6mb 60f
8:20am 6 8 mph 1017.6mb 59f
8:10am 6 9 mph 1017.6mb 57f
8:00am 6 9 mph 1017.6mb 55f
7:40am 6 8 mph 1017.6mb 55f
7:30am 6 8 mph 1017.6mb 54f
7:20am 6 7 mph 1017.6mb 53f
7:10am 5 7 mph 1017.6mb 51f
7:00am 5 6 mph 1017.6mb 50f
6:40am 6 7 mph 1017.6mb 49f
6:30am 5 7 mph 1017.6mb 49f
6:20am 5 7 mph 1017.3mb 49f
6:10am 6
mph
1017.3mb 49f
6:00am 5 7 mph 1017.3mb 49f
5:40am 6 7 mph 1017.3mb 48f
5:30am 6 7 mph 1017.3mb 48f
5:20am 6 7 mph 1017.6mb 48f
5:10am 5 6 mph 1017.6mb 49f
5:00am 6 7 mph 1017.6mb 48f
4:40am 5 6 mph 1017.6mb 49f
4:30am 5 7 mph 1017.6mb 49f
4:20am 6
mph
1017.6mb 49f
4:10am 6 7 mph 1017.6mb 49f
4:00am 6 7 mph 1017.6mb 49f
3:40am 6 9 mph 1017.9mb 50f
3:30am 7 8 mph 1017.9mb 50f
3:20am 6 8 mph 1017.9mb 50f
3:10am 6 8 mph 1017.9mb 50f
3:00am 6 8 mph 1017.9mb 49f
2:40am 6 7 mph 1017.9mb 50f
2:30am 6 9 mph 1018.3mb 50f
2:20am 7 9 mph 1018.3mb 50f
2:10am 7 9 mph 1018.3mb 50f
2:00am 7 9 mph 1018.3mb 50f
1:40am 7 8 mph 1018.3mb 50f
1:30am 6 8 mph 1018.3mb 50f
1:20am 6 8 mph 1018.3mb 51f
1:10am 7 9 mph 1018.6mb 50f
1:00am 5 6 mph 1018.6mb 49f
12:40am 3 5 mph 1018.6mb 49f
12:30am 2 3 mph 1018.6mb 49f
12:20am 3
mph
1018.6mb 49f
12:10am 3
mph
1018.6mb 49f
12:00am 1 2 mph 1019mb 49f
Tue 09/16 11:40pm 5
mph
1019mb 49f
11:30pm 3 5 mph 1019mb 49f
11:20pm 3 5 mph 1019mb 50f
11:10pm 3 5 mph 1019mb 50f
11:00pm 2 3 mph 1019mb 50f
10:40pm 3 5 mph 1019mb 51f
10:30pm 5 6 mph 1019mb 51f
10:20pm 5
mph
1019mb 51f
10:10pm 2 5 mph 1019mb 51f
10:00pm 3 5 mph 1019mb 51f
9:40pm 2
mph
1019.3mb 52f
9:30pm 2 3 mph 1019.3mb 52f
9:20pm 2 3 mph 1019.3mb 52f
9:10pm 3 6 mph 1019.3mb 53f
9:00pm 5 6 mph 1019.3mb 53f
8:40pm 5 6 mph 1019.3mb 54f
8:30pm 5 6 mph 1019.6mb 55f
8:20pm 3 6 mph 1019.3mb 55f
8:10pm 5 6 mph 1019.3mb 56f
8:00pm 5 6 mph 1019.3mb 56f
7:40pm 5 8 mph 1019.3mb 57f
7:30pm 5 9 mph 1019.3mb 57f
7:20pm 5 8 mph 1019.3mb 57f
7:10pm 3 8 mph 1019.3mb 57f
7:00pm 5 7 mph 1019.3mb 57f
6:40pm 6 8 mph 1019.3mb 58f
6:30pm 5 9 mph 1019.3mb 58f
6:20pm 8 10 mph 1019.3mb 59f
6:10pm 6 9 mph 1019.3mb 60f
6:00pm 7 10 mph 1019.6mb 60f
5:40pm 7 11 mph 1019.6mb 61f
5:30pm 9 13 mph 1019.6mb 61f
5:20pm 8 11 mph 1019.6mb 62f
5:10pm 8 11 mph 1019.6mb 61f
5:00pm 9 11 mph 1019.6mb 61f
4:40pm 7 11 mph 1019.6mb 60f
4:30pm 9 14 mph 1019.6mb 60f
4:20pm 11 14 mph 1019.6mb 61f
4:10pm 9 15 mph 1020mb 61f
4:00pm 10 16 mph 1020mb 61f
3:40pm 9 10 mph 1020mb 61f
3:30pm 9 13 mph 1020.3mb 60f
3:20pm 9 14 mph 1020.3mb 61f
3:10pm 11 14 mph 1020.3mb 60f
3:00pm 9 14 mph 1020.3mb 63f
2:40pm 8 10 mph 1020.7mb 61f
2:30pm 7 9 mph 1020.7mb 62f
2:20pm 7 10 mph 1021mb 61f
2:10pm 8 11 mph 1021mb 61f
2:00pm 7 8 mph 1021mb 61f
1:40pm 5 9 mph 1021.3mb 60f
1:30pm 5 9 mph 1021.3mb 63f
1:20pm 5 9 mph 1021.3mb 63f
1:10pm 2 8 mph 1021.3mb 64f
1:00pm 6 9 mph 1021.7mb 63f
12:50pm 3 8 mph 1021.7mb 63f
12:40pm 2 13 mph 1021.7mb 62f
12:30pm 7 9 mph 1022mb 63f
12:20pm 7 13 mph 1022mb 62f
12:10pm 6 10 mph 1022mb 63f
12:00pm 5 11 mph 1022mb 61f
11:40am 7 10 mph 1022.4mb 60f
11:30am 5 11 mph 1022.4mb 60f
11:20am 7 11 mph 1022.4mb 60f
11:10am 8 13 mph 1022.7mb 60f
11:00am 7 11 mph 1022.7mb 60f
10:50am 8 14 mph 1022.7mb 60f
10:40am 7 13 mph 1023mb 59f
10:30am 8 11 mph 1023mb 59f
10:20am 9 13 mph 1023mb 59f
10:10am 6 10 mph 1023mb 59f
10:00am 6 9 mph 1023mb 59f
9:50am 6 9 mph 1023.4mb 58f
9:40am 6 11 mph 1023.4mb 57f
9:30am 8 10 mph 1023.4mb 57f
9:20am 5 10 mph 1023.4mb 57f
9:10am 5 9 mph 1023.4mb 56f
9:00am 6 8 mph 1023mb 55f
8:50am 7 9 mph 1023mb 54f
8:40am 6 9 mph 1023mb 53f
8:30am 6 9 mph 1023mb 53f
8:20am 7 8 mph 1023mb 52f
8:10am 5 9 mph 1023mb 52f
8:00am 7 9 mph 1023mb 50f
7:50am 5 9 mph 1023mb 49f
7:40am 7 10 mph 1023mb 49f
7:30am 8 10 mph 1023mb 48f
7:20am 6 8 mph 1023mb 47f
7:10am 7 10 mph 1023mb 46f
7:00am 7 9 mph 1023mb 46f
6:50am 6 10 mph 1023mb 45f
6:40am 7 10 mph 1023mb 45f
6:30am 6 10 mph 1023mb 46f
6:20am 8 11 mph 1023mb 46f
6:10am 7 10 mph 1022.7mb 46f
6:00am 8 10 mph 1022.7mb 46f
5:50am 7 9 mph 1022.7mb 46f
5:40am 7 11 mph 1022.7mb 46f
5:30am 8 10 mph 1022.7mb 46f
5:20am 7 10 mph 1022.7mb 47f
5:10am 7 11 mph 1022.7mb 47f
5:00am 8 11 mph 1022.7mb 47f
4:50am 9 13 mph 1022.7mb 47f
4:40am 7 11 mph 1022.4mb 47f
4:30am 9 11 mph 1022.7mb 47f
4:20am 9 13 mph 1022.4mb 47f
4:10am 9 13 mph 1022.4mb 47f
4:00am 8 11 mph 1022.4mb 47f
3:50am 7 9 mph 1022.4mb 47f
3:40am 7 10 mph 1022.4mb 48f
2:40am 8 11 mph 1022.4mb 49f
2:30am 7 13 mph 1022.4mb 49f
2:20am 9 14 mph 1022.4mb 49f
2:10am 7 13 mph 1022mb 50f
2:00am 8 14 mph 1022mb 50f
1:50am 7 11 mph 1022mb 50f
1:40am 8 13 mph 1022mb 50f
1:30am 9 13 mph 1022mb 50f
1:20am 7 11 mph 1022mb 50f
1:10am 8 10 mph 1022mb 50f
1:00am 7 11 mph 1022mb 50f
12:50am 8 11 mph 1022mb 50f
12:40am 8 11 mph 1021.7mb 50f
12:30am 7 9 mph 1021.7mb 50f
12:20am 6 8 mph 1021.7mb 50f
12:10am 6 9 mph 1021.7mb 50f
12:00am 7 9 mph 1021.7mb 50f
Mon 09/15 11:50pm 7 9 mph 1021.7mb 50f
11:40pm 8 10 mph 1021.7mb 50f
11:30pm 7 9 mph 1021.7mb 50f
11:20pm 7 11 mph 1021.7mb 50f
11:10pm 7 10 mph 1021.7mb 50f
11:00pm 8 11 mph 1021.7mb 50f
10:50pm 8 10 mph 1021.7mb 50f
10:40pm 7 10 mph 1021.7mb 50f
10:30pm 7 9 mph 1021.3mb 51f
10:20pm 7 9 mph 1021.3mb 51f
10:10pm 7 9 mph 1021.3mb 51f
10:00pm 5 7 mph 1021.3mb 51f
9:50pm 5 7 mph 1021.3mb 51f
9:40pm 6 7 mph 1021.3mb 51f
9:30pm 5 7 mph 1021.3mb 51f
9:20pm 3 7 mph 1021.3mb 51f
9:10pm 5 8 mph 1021.3mb 51f
9:00pm 7 8 mph 1021.3mb 51f
8:50pm 5 7 mph 1021.3mb 51f
8:40pm 5 6 mph 1021.3mb 51f
8:30pm 5 7 mph 1021.3mb 52f
8:20pm 6 8 mph 1021.3mb 52f
8:10pm 5 6 mph 1021.3mb 52f
8:00pm 3 5 mph 1021mb 52f
7:50pm 5 6 mph 1021.3mb 52f
7:40pm 3 5 mph 1021mb 53f
7:30pm 2 5 mph 1021mb 53f
7:20pm 3 5 mph 1021mb 53f
7:10pm 3 5 mph 1020.7mb 54f
7:00pm 2 5 mph 1020.7mb 54f
6:50pm 3 5 mph 1021mb 55f
6:40pm 3 7 mph 1021mb 55f
6:30pm 6 8 mph 1020.7mb 56f
6:20pm 3 9 mph 1020.7mb 56f
6:10pm 5 7 mph 1020.7mb 57f
6:00pm 3 6 mph 1020.7mb 56f
5:50pm 2 6 mph 1020.7mb 56f
5:40pm 3 7 mph 1020.3mb 56f
5:30pm 5 7 mph 1020.3mb 56f
5:20pm 2 6 mph 1020.3mb 56f
5:10pm 2 8 mph 1020.7mb 56f
5:00pm 5 7 mph 1020.3mb 56f
4:50pm 3 8 mph 1020.7mb 56f
4:40pm 2 7 mph 1020.7mb 55f
4:30pm  -  1 mph 1020.7mb 54f
4:20pm 1 2 mph 1020.3mb 54f
4:10pm 1 2 mph 1020.3mb 54f
4:00pm 1 2 mph 1020.3mb 54f
3:50pm  -  2 mph 1020.3mb 54f
3:40pm 2 3 mph 1020.3mb 54f
3:30pm 1 3 mph 1020.7mb 54f
3:20pm 2 5 mph 1020.7mb 53f
3:10pm 3 6 mph 1020.7mb 54f
3:00pm 2 6 mph 1020.7mb 54f
2:50pm 5 7 mph 1020.7mb 54f
2:40pm 5 7 mph 1020.7mb 54f
2:30pm  -  5 mph 1020.7mb 54f
2:20pm 3 6 mph 1020.7mb 54f
2:10pm 3 8 mph 1020.7mb 54f
2:00pm 6 9 mph 1020.7mb 54f
1:50pm 6 9 mph 1021mb 55f
1:40pm 7 10 mph 1020.7mb 55f
1:30pm 6 8 mph 1020.3mb 56f
1:20pm 5 6 mph 1020.3mb 56f
1:10pm 2 6 mph 1020mb 56f
1:00pm 3 6 mph 1020.3mb 56f
12:50pm 3 5 mph 1020.3mb 56f
12:40pm 2 6 mph 1020.3mb 56f
12:30pm 3 6 mph 1020.3mb 56f
12:20pm 2 5 mph 1020.7mb 56f
12:10pm 3
mph
1020.7mb 56f
12:00pm 1 2 mph 1020.7mb 56f
11:50am 1 5 mph 1020.7mb 56f
11:40am 3 5 mph 1020.7mb 56f
11:30am 5 6 mph 1020.7mb 57f
11:20am 5
mph
1020.3mb 57f
11:10am 3 6 mph 1020.7mb 56f
11:00am 3 5 mph 1020.3mb 56f
10:50am 3 5 mph 1020.7mb 56f
10:40am 2 5 mph 1021mb 56f
10:30am 5 6 mph 1021mb 56f
10:20am 2 5 mph 1021mb 56f
10:10am 3 6 mph 1021mb 56f
10:00am 2 6 mph 1021mb 56f
9:50am 3 5 mph 1021mb 56f
9:40am 2
mph
1021mb 55f
9:30am 1 3 mph 1021mb 55f
9:20am 2 3 mph 1021mb 55f
9:10am 1 2 mph 1021.3mb 55f
9:00am 1 3 mph 1021.3mb 55f
8:50am 2 6 mph 1021.3mb 56f
8:40am 2 5 mph 1021.3mb 56f
8:30am 1 7 mph 1021.3mb 55f
8:20am 3 7 mph 1021.3mb 56f
8:10am 1 7 mph 1021.3mb 55f
8:00am 5 9 mph 1021mb 56f
7:50am 5 9 mph 1021mb 56f
7:40am 5 6 mph 1021mb 56f
7:30am 3 5 mph 1021mb 56f
7:20am 3 7 mph 1020.7mb 56f
7:10am 6 7 mph 1021mb 56f
7:00am 5 8 mph 1021mb 56f
6:50am 6 8 mph 1021mb 55f
6:40am 6 8 mph 1020.7mb 55f
6:30am 3 7 mph 1021mb 55f
6:20am 2 5 mph 1021mb 55f
6:10am 3 8 mph 1020.7mb 56f
6:00am 6 9 mph 1020.7mb 55f
5:50am 6 7 mph 1020.7mb 55f
5:40am 5 7 mph 1021mb 55f
5:30am 3 5 mph 1021mb 55f
5:20am 2 6 mph 1020.7mb 55f
5:10am 5
mph
1020.7mb 55f
5:00am 2 3 mph 1020.7mb 55f
4:50am 3
mph
1020.7mb 55f
4:40am 2 3 mph 1020.7mb 55f
4:30am 2
mph
1020.7mb 55f
4:20am  -  3 mph 1020.7mb 56f
4:10am 2 6 mph 1020.7mb 56f
4:00am 3 7 mph 1020.7mb 55f
3:50am 3 7 mph 1020.7mb 56f
3:40am 3 6 mph 1020.7mb 56f
3:30am 3 6 mph 1020.7mb 57f
3:20am 3 9 mph 1020.7mb 57f
3:10am 5 8 mph 1020.7mb 57f
3:00am 5 8 mph 1020.7mb 58f
2:50am 6 9 mph 1020.7mb 58f
2:40am 6 9 mph 1020.7mb 58f
2:30am 5 9 mph 1020.7mb 58f
2:20am 7 9 mph 1021mb 58f
1:40am 8 13 mph 1021mb 58f
1:30am 8 11 mph 1021mb 58f
1:20am 7 10 mph 1021mb 58f
1:10am 7 10 mph 1021mb 58f
1:00am 6 10 mph 1020.7mb 57f
12:50am 6 9 mph 1020.7mb 57f
12:40am 6 9 mph 1020.7mb 57f
12:30am 6 10 mph 1021mb 57f
12:20am 6 11 mph 1021mb 57f
12:10am 7 10 mph 1020.7mb 57f
12:00am 6 10 mph 1021mb 58f
Sun 09/14 11:50pm 8 10 mph 1021mb 57f
11:40pm 6 9 mph 1021mb 57f
11:30pm 6 8 mph 1021mb 57f
11:20pm 6 9 mph 1021mb 57f
11:10pm 6 8 mph 1021mb 57f
11:00pm 5 9 mph 1021mb 57f
10:50pm 6 8 mph 1021.3mb 57f
10:40pm 5 7 mph 1021mb 57f
10:30pm 5 8 mph 1021mb 57f
10:20pm 5 7 mph 1021mb 56f
10:10pm 5 7 mph 1021mb 56f
10:00pm 5 7 mph 1021mb 56f
9:50pm 5 9 mph 1021mb 56f
9:40pm 6 9 mph 1021mb 57f
9:30pm 6 8 mph 1021mb 57f
9:20pm 6 8 mph 1021mb 57f
9:10pm 6 8 mph 1021mb 58f
9:00pm 6 8 mph 1021mb 58f
8:50pm 6 9 mph 1021mb 59f
8:40pm 6 9 mph 1021mb 59f
8:30pm 3 8 mph 1021mb 58f
8:20pm 5 8 mph 1021mb 58f
8:10pm 5 7 mph 1021mb 59f
8:00pm 3 7 mph 1021mb 59f
7:50pm 3 5 mph 1021mb 60f
7:40pm 3 6 mph 1021mb 60f
7:30pm 5 6 mph 1021mb 60f
7:20pm 2 6 mph 1021mb 61f
7:10pm 2 3 mph 1021mb 61f
7:00pm 2 3 mph 1021mb 62f
6:50pm 2 6 mph 1021mb 63f
6:40pm 5 7 mph 1021mb 64f
6:30pm 5 10 mph 1021mb 65f
6:20pm 7 10 mph 1021mb 66f
6:10pm 7 11 mph 1021mb 67f
6:00pm 3 10 mph 1021mb 67f
5:50pm 5 11 mph 1021mb 67f
5:40pm 7 18 mph 1021mb 67f
5:30pm 9 18 mph 1021mb 66f
5:20pm 8 13 mph 1021mb 67f
5:10pm 8 14 mph 1021mb 69f
5:00pm 7 18 mph 1021mb 68f
4:50pm 8 17 mph 1021mb 68f
4:40pm 7 17 mph 1021mb 67f
4:30pm 14 20 mph 1021.3mb 68f
4:20pm 9 14 mph 1021mb 68f
4:10pm 8 16 mph 1021mb 67f
4:00pm 9 16 mph 1021.3mb 68f
3:50pm 9 14 mph 1021.3mb 68f
3:40pm 10 16 mph 1021.3mb 68f
3:30pm 10 16 mph 1021.3mb 67f
3:20pm 10 15 mph 1021.7mb 67f
3:10pm 7 15 mph 1021.7mb 69f
3:00pm 7 20 mph 1021.7mb 67f
2:50pm 8 14 mph 1022mb 65f
2:40pm 10 15 mph 1022mb 66f
2:30pm 9 13 mph 1022mb 65f
2:20pm 9 17 mph 1022.4mb 65f
2:10pm 10 15 mph 1022.4mb 65f
2:00pm 7 23 mph 1022.4mb 64f
1:50pm 9 15 mph 1022.7mb 64f
1:40pm 9 16 mph 1022.7mb 64f
1:30pm 8 17 mph 1023mb 64f
1:20pm 13 21 mph 1023mb 64f
1:10pm 11 16 mph 1023.4mb 64f
1:00pm 9 14 mph 1023.7mb 64f
12:50pm 10 18 mph 1023.7mb 62f
12:40pm 9 15 mph 1024mb 63f
12:30pm 11 20 mph 1024mb 63f
12:20pm 10 16 mph 1024.4mb 63f
12:10pm 8 16 mph 1024.4mb 61f
12:00pm 8 20 mph 1024.4mb 62f
11:50am 6 20 mph 1024.7mb 62f
11:40am 7 13 mph 1024.7mb 63f
11:30am 10 15 mph 1024.7mb 62f
11:20am 7 16 mph 1024.7mb 61f
11:10am 11 15 mph 1025.1mb 60f
11:00am 10 15 mph 1025.1mb 60f
10:50am 9 14 mph 1025.1mb 62f
10:40am 9 15 mph 1025.4mb 61f
10:30am 6 13 mph 1025.4mb 62f
10:20am 7 13 mph 1025.4mb 60f
10:10am 7 13 mph 1025.4mb 60f
10:00am 6 10 mph 1025.4mb 61f
9:50am 9 13 mph 1025.7mb 61f
9:40am 6 10 mph 1025.7mb 62f
9:30am 7 9 mph 1025.7mb 60f
9:20am 6 8 mph 1025.7mb 61f
9:10am 3 10 mph 1025.7mb 59f
9:00am 7 10 mph 1025.7mb 56f
8:50am 5 13 mph 1026.1mb 55f
8:40am 7 10 mph 1025.7mb 55f
8:30am 7 8 mph 1025.7mb 53f
8:20am 5 7 mph 1026.1mb 52f
8:10am 5 7 mph 1026.1mb 51f
8:00am 6 8 mph 1026.1mb 51f
7:50am 6 8 mph 1026.4mb 51f
7:40am 6 7 mph 1026.1mb 51f
7:30am 3 9 mph 1026.1mb 50f
7:20am 6 8 mph 1026.1mb 50f
7:10am 7 9 mph 1026.1mb 50f
7:00am 5 7 mph 1026.1mb 50f
6:50am 7 8 mph 1026.1mb 49f
6:40am 6 8 mph 1026.1mb 49f
6:30am 7 8 mph 1026.1mb 49f
6:20am 6 9 mph 1026.1mb 50f
6:10am 7 9 mph 1026.1mb 50f
6:00am 6 8 mph 1026.1mb 50f
5:50am 6 8 mph 1026.1mb 50f
5:40am 6 9 mph 1026.4mb 50f
5:30am 7 9 mph 1026.1mb 50f
5:20am 7 10 mph 1026.4mb 50f
5:10am 7 10 mph 1026.1mb 50f
5:00am 8 10 mph 1026.1mb 50f
4:50am 6 9 mph 1026.1mb 50f
4:40am 6 10 mph 1026.4mb 50f
4:30am 7 9 mph 1026.4mb 50f
4:20am 7 9 mph 1026.4mb 50f
4:10am 6 9 mph 1026.4mb 50f
4:00am 6 9 mph 1026.8mb 51f
3:50am 7 10 mph 1026.8mb 51f
3:40am 7 10 mph 1026.8mb 50f
3:30am 7 9 mph 1026.8mb 50f
3:20am 7 9 mph 1026.8mb 50f
3:10am 7 9 mph 1026.8mb 51f
3:00am 6 8 mph 1026.8mb 51f
2:50am 6 8 mph 1027.1mb 51f
2:40am 7 8 mph 1027.1mb 51f
2:30am 6 9 mph 1027.1mb 51f
2:20am 6 9 mph 1027.1mb 51f
2:10am 6 8 mph 1027.1mb 51f
2:00am 6 8 mph 1027.1mb 50f
1:50am 6 7 mph 1027.4mb 50f
1:40am 5 7 mph 1027.4mb 50f
1:30am 5 7 mph 1027.4mb 50f
1:20am 5 8 mph 1027.4mb 50f
1:10am 6 8 mph 1027.4mb 50f
1:00am 6 8 mph 1027.4mb 50f
12:50am 6 8 mph 1027.4mb 50f
12:40am 6 8 mph 1027.4mb 50f
12:30am 7 8 mph 1027.1mb 50f
12:20am 6 9 mph 1027.1mb 50f
12:10am 6 8 mph 1027.1mb 50f
12:00am 6 8 mph 1027.1mb 50f
Sat 09/13 11:50pm 6 8 mph 1027.1mb 50f
11:40pm 6 9 mph 1027.1mb 50f
11:30pm 6 9 mph 1027.1mb 50f
11:20pm 5 8 mph 1027.1mb 50f
11:10pm 6 9 mph 1027.1mb 50f
11:00pm 5 7 mph 1027.1mb 50f
10:50pm 6 7 mph 1027.1mb 49f
10:40pm 6 9 mph 1027.1mb 49f
10:30pm 6 7 mph 1027.1mb 49f
10:20pm 5 7 mph 1026.8mb 49f
10:10pm 5 7 mph 1026.8mb 49f
10:00pm 6 9 mph 1026.8mb 49f
9:50pm 5 8 mph 1026.4mb 49f
9:40pm 6 8 mph 1026.8mb 50f
9:30pm 6 8 mph 1026.8mb 50f
9:20pm 5 7 mph 1026.4mb 50f
9:10pm 6 7 mph 1026.4mb 51f
9:00pm 3 6 mph 1026.4mb 51f
8:50pm 3 6 mph 1026.4mb 52f
8:40pm 2 7 mph 1026.8mb 52f
8:30pm 5 8 mph 1026.4mb 53f
8:20pm 6 8 mph 1026.8mb 53f
8:10pm 5 9 mph 1026.8mb 53f
8:00pm 5 7 mph 1026.8mb 53f
7:50pm 3 7 mph 1026.8mb 53f
7:40pm 3 9 mph 1026.8mb 53f
7:30pm 6 9 mph 1026.8mb 53f
7:20pm 8 10 mph 1026.8mb 53f
7:10pm 8 10 mph 1027.1mb 53f
7:00pm 8 9 mph 1027.1mb 53f
6:50pm 7 9 mph 1027.1mb 53f
6:40pm 7 9 mph 1026.8mb 53f
6:30pm 6 8 mph 1026.8mb 53f
6:20pm 6 8 mph 1026.8mb 53f
6:10pm 6 8 mph 1026.8mb 53f